createdAt,value
2019-04-16T00:00:43.407Z,8.99
2019-04-16T00:01:45.346Z,8.99
2019-04-16T00:02:43.031Z,8.97
2019-04-16T00:03:42.982Z,8.97
2019-04-16T00:04:42.995Z,8.97
2019-04-16T00:05:42.978Z,8.93
2019-04-16T00:06:42.933Z,8.95
2019-04-16T00:07:42.919Z,8.93
2019-04-16T00:08:42.910Z,8.92
2019-04-16T00:09:42.911Z,8.89
2019-04-16T00:10:42.869Z,8.89
2019-04-16T00:11:42.847Z,8.87
2019-04-16T00:12:42.839Z,8.84
2019-04-16T00:13:42.830Z,8.84
2019-04-16T00:14:42.827Z,8.84
2019-04-16T00:15:42.811Z,8.84
2019-04-16T00:16:44.589Z,8.82
2019-04-16T00:17:44.410Z,8.82
2019-04-16T00:18:56.351Z,8.81
2019-04-16T00:19:42.727Z,8.81
2019-04-16T00:20:42.725Z,8.78
2019-04-16T00:21:42.687Z,8.81
2019-04-16T00:22:42.667Z,8.81
2019-04-16T00:23:42.655Z,8.81
2019-04-16T00:24:42.711Z,8.82
2019-04-16T00:25:42.619Z,8.81
2019-04-16T00:26:42.609Z,8.81
2019-04-16T00:27:42.585Z,8.81
2019-04-16T00:28:42.572Z,8.81
2019-04-16T00:29:42.550Z,8.81
2019-04-16T00:30:42.582Z,8.82
2019-04-16T00:31:42.514Z,8.81
2019-04-16T00:32:42.753Z,8.82
2019-04-16T00:33:43.465Z,8.81
2019-04-16T00:34:44.799Z,8.82
2019-04-16T00:35:46.387Z,8.81
2019-04-16T00:36:42.495Z,8.79
2019-04-16T00:37:42.424Z,8.78
2019-04-16T00:38:42.410Z,8.77
2019-04-16T00:39:42.383Z,8.75
2019-04-16T00:40:42.374Z,8.75
2019-04-16T00:41:42.360Z,8.74
2019-04-16T00:42:42.335Z,8.75
2019-04-16T00:43:44.130Z,8.75
2019-04-16T00:44:42.313Z,8.77
2019-04-16T00:45:42.293Z,8.78
2019-04-16T00:46:42.295Z,8.79
2019-04-16T00:47:42.262Z,8.81
2019-04-16T00:48:42.234Z,8.81
2019-04-16T00:49:42.229Z,8.79
2019-04-16T00:50:42.207Z,8.81
2019-04-16T00:51:42.182Z,8.81
2019-04-16T00:52:42.172Z,8.79
2019-04-16T00:53:42.153Z,8.78
2019-04-16T00:54:42.625Z,8.77
2019-04-16T00:55:42.322Z,8.77
2019-04-16T00:56:43.599Z,8.75
2019-04-16T00:57:42.089Z,8.74
2019-04-16T00:58:42.067Z,8.74
2019-04-16T00:59:42.047Z,8.72
2019-04-16T01:00:42.036Z,8.74
2019-04-16T01:01:42.023Z,8.74
2019-04-16T01:02:42.056Z,8.72
2019-04-16T01:03:41.987Z,8.74
2019-04-16T01:04:41.966Z,8.72
2019-04-16T01:05:41.949Z,8.68
2019-04-16T01:06:41.941Z,8.71
2019-04-16T01:07:41.922Z,8.74
2019-04-16T01:08:53.997Z,8.72
2019-04-16T01:09:41.890Z,8.72
2019-04-16T01:10:41.865Z,8.71
2019-04-16T01:11:41.847Z,8.71
2019-04-16T01:12:41.838Z,8.71
2019-04-16T01:13:41.824Z,8.71
2019-04-16T01:14:41.807Z,8.69
2019-04-16T01:15:41.781Z,8.69
2019-04-16T01:16:41.773Z,8.68
2019-04-16T01:17:41.777Z,8.66
2019-04-16T01:18:41.793Z,8.66
2019-04-16T01:19:41.935Z,8.63
2019-04-16T01:20:43.302Z,8.63
2019-04-16T01:21:44.633Z,8.63
2019-04-16T01:22:46.628Z,8.60
2019-04-16T01:23:41.650Z,8.60
2019-04-16T01:24:41.637Z,8.59
2019-04-16T01:25:41.616Z,8.57
2019-04-16T01:26:41.612Z,8.57
2019-04-16T01:27:41.644Z,8.56
2019-04-16T01:28:41.565Z,8.54
2019-04-16T01:29:41.555Z,8.52
2019-04-16T01:30:41.539Z,8.46
2019-04-16T01:31:41.512Z,8.42
2019-04-16T01:32:42.674Z,8.39
2019-04-16T01:33:43.388Z,8.35
2019-04-16T01:34:41.488Z,8.36
2019-04-16T01:35:41.446Z,8.32
2019-04-16T01:36:41.432Z,8.28
2019-04-16T01:37:41.416Z,8.27
2019-04-16T01:38:41.400Z,8.23
2019-04-16T01:39:41.408Z,8.20
2019-04-16T01:40:41.364Z,8.16
2019-04-16T01:41:41.346Z,8.11
2019-04-16T01:42:41.362Z,8.05
2019-04-16T01:43:41.307Z,8.03
2019-04-16T01:44:41.297Z,8.02
2019-04-16T01:45:41.302Z,8.01
2019-04-16T01:46:41.260Z,8.01
2019-04-16T01:47:41.256Z,8.03
2019-04-16T01:48:41.228Z,8.05
2019-04-16T01:49:42.082Z,8.03
2019-04-16T01:50:43.523Z,8.03
2019-04-16T01:51:41.177Z,8.05
2019-04-16T01:52:41.187Z,8.02
2019-04-16T01:53:41.145Z,8.01
2019-04-16T01:54:41.128Z,8.01
2019-04-16T01:55:42.607Z,7.99
2019-04-16T01:56:41.098Z,7.96
2019-04-16T01:57:41.075Z,7.95
2019-04-16T01:58:41.061Z,7.91
2019-04-16T01:59:41.056Z,7.91
2019-04-16T02:00:41.018Z,7.87
2019-04-16T02:01:43.407Z,7.85
2019-04-16T02:02:43.485Z,7.83
2019-04-16T02:03:40.979Z,7.80
2019-04-16T02:04:40.951Z,7.81
2019-04-16T02:05:40.943Z,7.77
2019-04-16T02:06:40.942Z,7.74
2019-04-16T02:07:40.914Z,7.72
2019-04-16T02:08:40.893Z,7.69
2019-04-16T02:09:40.866Z,7.66
2019-04-16T02:10:40.866Z,7.62
2019-04-16T02:11:41.427Z,7.61
2019-04-16T02:12:43.434Z,7.61
2019-04-16T02:13:45.872Z,7.61
2019-04-16T02:14:40.782Z,7.58
2019-04-16T02:15:40.824Z,7.58
2019-04-16T02:16:40.747Z,7.58
2019-04-16T02:17:40.728Z,7.56
2019-04-16T02:18:40.712Z,7.56
2019-04-16T02:19:40.697Z,7.55
2019-04-16T02:20:40.683Z,7.55
2019-04-16T02:21:41.476Z,7.51
2019-04-16T02:22:42.314Z,7.48
2019-04-16T02:23:40.627Z,7.48
2019-04-16T02:24:40.608Z,7.47
2019-04-16T02:25:40.598Z,7.44
2019-04-16T02:26:40.598Z,7.41
2019-04-16T02:27:40.556Z,7.40
2019-04-16T02:28:40.541Z,7.36
2019-04-16T02:29:40.531Z,7.33
2019-04-16T02:30:40.522Z,7.33
2019-04-16T02:31:40.519Z,7.32
2019-04-16T02:32:40.563Z,7.32
2019-04-16T02:33:40.461Z,7.31
2019-04-16T02:34:40.456Z,7.29
2019-04-16T02:35:40.425Z,7.31
2019-04-16T02:36:40.425Z,7.31
2019-04-16T02:37:40.395Z,7.26
2019-04-16T02:38:45.867Z,7.26
2019-04-16T02:39:48.968Z,7.26
2019-04-16T02:40:40.334Z,7.25
2019-04-16T02:41:40.353Z,7.25
2019-04-16T02:42:40.323Z,7.23
2019-04-16T02:43:41.360Z,7.25
2019-04-16T02:44:40.263Z,7.18
2019-04-16T02:45:40.250Z,7.18
2019-04-16T02:46:40.265Z,7.13
2019-04-16T02:47:42.102Z,7.10
2019-04-16T02:48:40.205Z,7.10
2019-04-16T02:49:40.175Z,7.07
2019-04-16T02:50:40.153Z,7.05
2019-04-16T02:51:41.653Z,7.03
2019-04-16T02:52:40.153Z,7.03
2019-04-16T02:53:40.112Z,7.03
2019-04-16T02:54:40.103Z,7.01
2019-04-16T02:55:43.925Z,7.03
2019-04-16T02:56:40.052Z,7.01
2019-04-16T02:57:40.067Z,7.00
2019-04-16T02:58:40.035Z,6.97
2019-04-16T02:59:45.766Z,6.97
2019-04-16T03:00:39.979Z,6.97
2019-04-16T03:01:39.965Z,6.97
2019-04-16T03:02:39.956Z,6.96
2019-04-16T03:03:39.950Z,6.97
2019-04-16T03:04:39.916Z,6.95
2019-04-16T03:05:39.903Z,6.96
2019-04-16T03:06:39.884Z,6.95
2019-04-16T03:07:39.892Z,6.93
2019-04-16T03:08:39.843Z,6.95
2019-04-16T03:09:40.919Z,6.93
2019-04-16T03:10:41.884Z,6.93
2019-04-16T03:11:39.798Z,6.92
2019-04-16T03:12:39.798Z,6.90
2019-04-16T03:13:39.753Z,6.90
2019-04-16T03:14:39.745Z,6.90
2019-04-16T03:15:39.730Z,6.87
2019-04-16T03:16:39.722Z,6.85
2019-04-16T03:17:42.756Z,6.82
2019-04-16T03:18:39.667Z,6.78
2019-04-16T03:19:39.702Z,6.77
2019-04-16T03:20:39.630Z,6.77
2019-04-16T03:21:39.613Z,6.75
2019-04-16T03:22:39.595Z,6.72
2019-04-16T03:23:39.587Z,6.71
2019-04-16T03:24:40.184Z,6.71
2019-04-16T03:25:41.413Z,6.74
2019-04-16T03:26:39.523Z,6.71
2019-04-16T03:27:39.508Z,6.71
2019-04-16T03:28:39.494Z,6.70
2019-04-16T03:29:39.498Z,6.71
2019-04-16T03:30:42.115Z,6.72
2019-04-16T03:31:39.443Z,6.72
2019-04-16T03:32:39.420Z,6.71
2019-04-16T03:33:48.542Z,6.71
2019-04-16T03:34:39.423Z,6.70
2019-04-16T03:35:39.366Z,6.68
2019-04-16T03:36:39.354Z,6.67
2019-04-16T03:37:39.331Z,6.67
2019-04-16T03:38:41.982Z,6.65
2019-04-16T03:39:43.777Z,6.64
2019-04-16T03:40:39.286Z,6.64
2019-04-16T03:41:39.269Z,6.65
2019-04-16T03:42:39.248Z,6.67
2019-04-16T03:43:39.222Z,6.67
2019-04-16T03:44:39.203Z,6.65
2019-04-16T03:45:40.451Z,6.67
2019-04-16T03:46:40.211Z,6.67
2019-04-16T03:47:39.150Z,6.70
2019-04-16T03:48:39.135Z,6.67
2019-04-16T03:49:39.131Z,6.65
2019-04-16T03:50:39.103Z,6.65
2019-04-16T03:51:39.086Z,6.64
2019-04-16T03:52:40.877Z,6.62
2019-04-16T03:53:39.051Z,6.65
2019-04-16T03:54:39.040Z,6.68
2019-04-16T03:55:39.023Z,6.68
2019-04-16T03:56:39.029Z,6.67
2019-04-16T03:57:38.974Z,6.68
2019-04-16T03:58:39.382Z,6.68
2019-04-16T03:59:40.100Z,6.67
2019-04-16T04:00:43.884Z,6.65
2019-04-16T04:01:38.929Z,6.65
2019-04-16T04:02:38.898Z,6.64
2019-04-16T04:03:38.884Z,6.62
2019-04-16T04:04:38.848Z,6.64
2019-04-16T04:05:38.843Z,6.62
2019-04-16T04:06:39.623Z,6.60
2019-04-16T04:07:43.810Z,6.60
2019-04-16T04:08:38.789Z,6.56
2019-04-16T04:09:38.775Z,6.54
2019-04-16T04:10:38.753Z,6.54
2019-04-16T04:11:41.176Z,6.56
2019-04-16T04:12:38.737Z,6.54
2019-04-16T04:13:38.695Z,6.53
2019-04-16T04:14:38.703Z,6.52
2019-04-16T04:15:38.659Z,6.52
2019-04-16T04:16:38.634Z,6.54
2019-04-16T04:17:39.595Z,6.53
2019-04-16T04:18:42.911Z,6.49
2019-04-16T04:19:38.584Z,6.50
2019-04-16T04:20:38.573Z,6.49
2019-04-16T04:21:38.555Z,6.50
2019-04-16T04:22:38.550Z,6.49
2019-04-16T04:23:38.514Z,6.50
2019-04-16T04:24:38.562Z,6.52
2019-04-16T04:25:38.482Z,6.52
2019-04-16T04:26:41.505Z,6.49
2019-04-16T04:27:38.454Z,6.49
2019-04-16T04:28:38.436Z,6.46
2019-04-16T04:29:38.442Z,6.46
2019-04-16T04:30:38.396Z,6.46
2019-04-16T04:31:38.371Z,6.46
2019-04-16T04:32:38.353Z,6.44
2019-04-16T04:34:38.353Z,6.43
2019-04-16T04:35:38.298Z,6.41
2019-04-16T04:36:38.279Z,6.39
2019-04-16T04:37:38.269Z,6.41
2019-04-16T04:38:38.436Z,6.44
2019-04-16T04:39:38.260Z,6.44
2019-04-16T04:40:44.834Z,6.43
2019-04-16T04:41:38.191Z,6.46
2019-04-16T04:42:38.174Z,6.46
2019-04-16T04:43:10.018Z,6.43
2019-04-16T04:43:38.161Z,6.49
2019-04-16T04:44:38.175Z,6.50
2019-04-16T04:45:40.881Z,6.47
2019-04-16T04:46:38.116Z,6.47
2019-04-16T04:47:38.083Z,6.44
2019-04-16T04:48:38.072Z,6.46
2019-04-16T04:49:38.080Z,6.44
2019-04-16T04:50:38.040Z,6.43
2019-04-16T04:51:42.485Z,6.41
2019-04-16T04:52:37.996Z,6.36
2019-04-16T04:53:37.978Z,6.32
2019-04-16T04:54:37.980Z,6.34
2019-04-16T04:55:37.943Z,6.34
2019-04-16T04:56:37.934Z,6.31
2019-04-16T04:57:37.928Z,6.26
2019-04-16T04:58:38.080Z,6.26
2019-04-16T04:59:37.898Z,6.20
2019-04-16T05:00:40.511Z,6.20
2019-04-16T05:01:37.906Z,6.19
2019-04-16T05:02:37.826Z,6.19
2019-04-16T05:03:37.797Z,6.20
2019-04-16T05:04:37.789Z,6.19
2019-04-16T05:05:37.767Z,6.17
2019-04-16T05:06:37.747Z,6.17
2019-04-16T05:07:37.754Z,6.13
2019-04-16T05:08:37.715Z,6.15
2019-04-16T05:09:37.687Z,6.15
2019-04-16T05:10:42.915Z,6.15
2019-04-16T05:11:37.686Z,6.15
2019-04-16T05:12:37.637Z,6.15
2019-04-16T05:13:37.618Z,6.16
2019-04-16T05:14:37.610Z,6.15
2019-04-16T05:15:37.590Z,6.13
2019-04-16T05:16:37.592Z,6.12
2019-04-16T05:17:38.423Z,6.13
2019-04-16T05:18:38.295Z,6.17
2019-04-16T05:19:37.512Z,6.15
2019-04-16T05:20:37.501Z,6.17
2019-04-16T05:21:37.497Z,6.16
2019-04-16T05:22:37.485Z,6.17
2019-04-16T05:23:37.791Z,6.19
2019-04-16T05:24:37.784Z,6.20
2019-04-16T05:25:37.404Z,6.22
2019-04-16T05:26:37.428Z,6.25
2019-04-16T05:27:40.119Z,6.26
2019-04-16T05:28:37.348Z,6.29
2019-04-16T05:29:37.338Z,6.32
2019-04-16T05:30:37.314Z,6.35
2019-04-16T05:31:37.302Z,6.38
2019-04-16T05:32:37.308Z,6.38
2019-04-16T05:33:38.104Z,6.41
2019-04-16T05:34:38.260Z,6.43
2019-04-16T05:35:38.533Z,6.44
2019-04-16T05:36:40.088Z,6.47
2019-04-16T05:37:37.210Z,6.47
2019-04-16T05:38:37.208Z,6.49
2019-04-16T05:39:37.159Z,6.50
2019-04-16T05:40:37.132Z,6.52
2019-04-16T05:41:37.121Z,6.53
2019-04-16T05:42:37.113Z,6.53
2019-04-16T05:43:37.106Z,6.53
2019-04-16T05:44:37.062Z,6.53
2019-04-16T05:45:37.879Z,6.53
2019-04-16T05:46:38.367Z,6.53
2019-04-16T05:47:37.014Z,6.54
2019-04-16T05:48:37.032Z,6.54
2019-04-16T05:49:36.974Z,6.57
2019-04-16T05:50:36.960Z,6.56
2019-04-16T05:51:36.938Z,6.57
2019-04-16T05:52:36.925Z,6.62
2019-04-16T05:53:37.415Z,6.67
2019-04-16T05:54:36.885Z,6.68
2019-04-16T05:55:36.864Z,6.71
2019-04-16T05:56:36.918Z,6.75
2019-04-16T05:57:36.832Z,6.80
2019-04-16T05:58:36.818Z,6.83
2019-04-16T05:59:36.834Z,6.87
2019-04-16T06:00:38.621Z,6.90
2019-04-16T06:01:36.780Z,6.93
2019-04-16T06:02:36.762Z,6.95
2019-04-16T06:03:36.731Z,6.96
2019-04-16T06:04:36.731Z,7.00
2019-04-16T06:05:36.696Z,7.03
2019-04-16T06:06:36.721Z,7.04
2019-04-16T06:07:37.960Z,7.07
2019-04-16T06:08:40.630Z,7.10
2019-04-16T06:09:36.652Z,7.14
2019-04-16T06:10:36.598Z,7.14
2019-04-16T06:11:36.723Z,7.15
2019-04-16T06:12:39.622Z,7.19
2019-04-16T06:13:36.546Z,7.21
2019-04-16T06:14:36.563Z,7.26
2019-04-16T06:15:36.510Z,7.31
2019-04-16T06:16:36.503Z,7.33
2019-04-16T06:17:36.477Z,7.41
2019-04-16T06:18:38.046Z,7.44
2019-04-16T06:19:36.446Z,7.48
2019-04-16T06:20:36.425Z,7.53
2019-04-16T06:21:36.409Z,7.56
2019-04-16T06:22:36.396Z,7.59
2019-04-16T06:23:36.373Z,7.58
2019-04-16T06:24:36.384Z,7.64
2019-04-16T06:25:40.990Z,7.66
2019-04-16T06:26:36.335Z,7.69
2019-04-16T06:27:36.301Z,7.77
2019-04-16T06:28:36.289Z,7.78
2019-04-16T06:29:36.289Z,7.77
2019-04-16T06:30:36.304Z,7.80
2019-04-16T06:31:39.150Z,7.84
2019-04-16T06:32:36.223Z,7.88
2019-04-16T06:33:36.207Z,7.90
2019-04-16T06:34:36.181Z,7.90
2019-04-16T06:35:42.966Z,7.91
2019-04-16T06:36:36.169Z,7.95
2019-04-16T06:37:36.134Z,7.99
2019-04-16T06:38:36.118Z,8.05
2019-04-16T06:39:36.096Z,8.09
2019-04-16T06:40:36.075Z,8.06
2019-04-16T06:41:41.806Z,8.09
2019-04-16T06:42:38.454Z,8.14
2019-04-16T06:43:36.024Z,8.17
2019-04-16T06:44:36.010Z,8.21
2019-04-16T06:45:37.151Z,8.27
2019-04-16T06:46:39.427Z,8.21
2019-04-16T06:47:35.956Z,8.23
2019-04-16T06:48:35.939Z,8.20
2019-04-16T06:49:35.929Z,8.23
2019-04-16T06:50:39.920Z,8.23
2019-04-16T06:51:35.920Z,8.27
2019-04-16T06:52:35.901Z,8.31
2019-04-16T06:53:35.860Z,8.35
2019-04-16T06:54:35.837Z,8.34
2019-04-16T06:55:36.265Z,8.35
2019-04-16T06:56:37.353Z,8.38
2019-04-16T06:57:35.813Z,8.36
2019-04-16T06:58:50.145Z,8.41
2019-04-16T06:59:35.747Z,8.45
2019-04-16T07:00:35.735Z,8.52
2019-04-16T07:01:37.437Z,8.56
2019-04-16T07:02:37.494Z,8.60
2019-04-16T07:03:35.685Z,8.69
2019-04-16T07:04:35.665Z,8.72
2019-04-16T07:05:35.664Z,8.77
2019-04-16T07:06:36.292Z,8.81
2019-04-16T07:07:39.850Z,8.86
2019-04-16T07:08:38.077Z,8.93
2019-04-16T07:09:41.795Z,8.97
2019-04-16T07:10:44.474Z,9.02
2019-04-16T07:11:35.548Z,9.08
2019-04-16T07:12:38.507Z,9.09
2019-04-16T07:13:35.563Z,9.11
2019-04-16T07:14:36.149Z,9.11
2019-04-16T07:15:35.599Z,9.08
2019-04-16T07:16:35.469Z,9.11
2019-04-16T07:17:35.442Z,9.11
2019-04-16T07:18:38.229Z,9.15
2019-04-16T07:19:35.452Z,9.18
2019-04-16T07:20:35.400Z,9.27
2019-04-16T07:21:35.386Z,9.30
2019-04-16T07:22:35.358Z,9.31
2019-04-16T07:23:35.425Z,9.36
2019-04-16T07:24:37.158Z,9.40
2019-04-16T07:25:40.334Z,9.48
2019-04-16T07:26:38.595Z,9.51
2019-04-16T07:27:38.364Z,9.55
2019-04-16T07:28:35.290Z,9.56
2019-04-16T07:29:35.328Z,9.59
2019-04-16T07:30:38.622Z,9.56
2019-04-16T07:31:35.305Z,9.58
2019-04-16T07:32:35.198Z,9.59
2019-04-16T07:33:35.184Z,9.62
2019-04-16T07:34:35.209Z,9.55
2019-04-16T07:35:35.149Z,9.63
2019-04-16T07:36:35.133Z,9.64
2019-04-16T07:37:35.125Z,9.67
2019-04-16T07:38:35.976Z,9.69
2019-04-16T07:39:37.367Z,9.73
2019-04-16T07:40:35.066Z,9.76
2019-04-16T07:41:35.056Z,9.80
2019-04-16T07:42:35.035Z,9.82
2019-04-16T07:43:35.021Z,9.85
2019-04-16T07:44:36.543Z,9.91
2019-04-16T07:45:34.989Z,9.94
2019-04-16T07:46:34.979Z,9.90
2019-04-16T07:47:34.966Z,9.91
2019-04-16T07:48:34.942Z,9.97
2019-04-16T07:49:34.951Z,10.05
2019-04-16T07:50:34.916Z,10.10
2019-04-16T07:51:36.140Z,10.15
2019-04-16T07:52:34.875Z,10.12
2019-04-16T07:53:34.865Z,10.15
2019-04-16T07:54:34.848Z,10.18
2019-04-16T07:55:34.832Z,10.24
2019-04-16T07:56:34.820Z,10.28
2019-04-16T07:57:34.846Z,10.27
2019-04-16T07:58:34.796Z,10.33
2019-04-16T07:59:34.767Z,10.43
2019-04-16T08:00:40.317Z,10.51
2019-04-16T08:01:34.739Z,10.64
2019-04-16T08:02:34.721Z,10.67
2019-04-16T08:03:34.712Z,10.72
2019-04-16T08:04:35.725Z,10.77
2019-04-16T08:05:37.848Z,10.76
2019-04-16T08:06:34.660Z,10.82
2019-04-16T08:07:34.654Z,10.94
2019-04-16T08:08:34.649Z,11.08
2019-04-16T08:09:34.619Z,11.18
2019-04-16T08:10:34.604Z,11.34
2019-04-16T08:11:34.600Z,11.48
2019-04-16T08:12:34.597Z,11.67
2019-04-16T08:13:34.596Z,11.83
2019-04-16T08:14:34.542Z,11.71
2019-04-16T08:15:34.527Z,11.63
2019-04-16T08:16:46.634Z,11.49
2019-04-16T08:17:34.526Z,11.49
2019-04-16T08:18:34.496Z,11.67
2019-04-16T08:19:37.157Z,11.81
2019-04-16T08:20:34.479Z,11.93
2019-04-16T08:21:34.448Z,11.91
2019-04-16T08:22:34.427Z,12.08
2019-04-16T08:23:34.416Z,12.21
2019-04-16T08:24:34.405Z,12.08
2019-04-16T08:25:34.984Z,12.28
2019-04-16T08:26:34.379Z,12.37
2019-04-16T08:27:34.384Z,12.40
2019-04-16T08:28:34.347Z,12.66
2019-04-16T08:29:34.327Z,12.91
2019-04-16T08:30:37.276Z,13.26
2019-04-16T08:31:34.304Z,13.26
2019-04-16T08:32:34.330Z,13.42
2019-04-16T08:33:34.271Z,13.64
2019-04-16T08:34:34.260Z,13.86
2019-04-16T08:35:34.255Z,13.87
2019-04-16T08:36:34.237Z,13.93
2019-04-16T08:37:48.044Z,13.71
2019-04-16T08:38:34.990Z,13.40
2019-04-16T08:39:36.872Z,13.57
2019-04-16T08:40:34.181Z,13.46
2019-04-16T08:41:34.162Z,13.42
2019-04-16T08:42:44.438Z,13.52
2019-04-16T08:43:34.135Z,13.57
2019-04-16T08:44:35.776Z,13.76
2019-04-16T08:45:39.135Z,14.16
2019-04-16T08:46:34.099Z,14.11
2019-04-16T08:47:34.085Z,14.49
2019-04-16T08:48:34.100Z,14.97
2019-04-16T08:49:34.056Z,15.00
2019-04-16T08:50:34.031Z,15.47
2019-04-16T08:51:36.973Z,15.73
2019-04-16T08:52:34.010Z,15.90
2019-04-16T08:53:35.527Z,16.13
2019-04-16T08:54:34.015Z,16.05
2019-04-16T08:55:33.972Z,15.67
2019-04-16T08:56:33.959Z,15.35
2019-04-16T08:57:33.953Z,15.50
2019-04-16T08:58:35.700Z,15.76
2019-04-16T08:59:33.985Z,15.80
2019-04-16T09:00:33.917Z,15.78
2019-04-16T09:01:33.894Z,15.78
2019-04-16T09:02:33.883Z,15.65
2019-04-16T09:03:33.869Z,15.65
2019-04-16T09:04:34.669Z,15.41
2019-04-16T09:05:33.848Z,15.22
2019-04-16T09:06:33.834Z,15.18
2019-04-16T09:07:33.821Z,14.77
2019-04-16T09:08:33.815Z,14.56
2019-04-16T09:09:33.800Z,14.56
2019-04-16T09:10:33.807Z,14.53
2019-04-16T09:11:35.473Z,14.52
2019-04-16T09:12:33.875Z,14.41
2019-04-16T09:13:33.742Z,14.48
2019-04-16T09:14:33.760Z,14.61
2019-04-16T09:15:33.715Z,14.94
2019-04-16T09:16:33.707Z,15.25
2019-04-16T09:17:33.716Z,15.62
2019-04-16T09:18:33.715Z,15.78
2019-04-16T09:19:33.717Z,15.91
2019-04-16T09:20:34.727Z,16.13
2019-04-16T09:21:33.674Z,16.36
2019-04-16T09:22:47.888Z,16.58
2019-04-16T09:23:33.627Z,16.84
2019-04-16T09:24:33.607Z,16.99
2019-04-16T09:25:33.658Z,16.92
2019-04-16T09:26:33.586Z,16.86
2019-04-16T09:27:34.323Z,16.92
2019-04-16T09:28:33.612Z,17.41
2019-04-16T09:29:33.555Z,17.87
2019-04-16T09:30:33.539Z,18.36
2019-04-16T09:31:33.559Z,18.85
2019-04-16T09:32:33.516Z,18.76
2019-04-16T09:33:34.448Z,18.74
2019-04-16T09:34:35.663Z,18.78
2019-04-16T09:35:33.493Z,19.09
2019-04-16T09:36:33.540Z,19.44
2019-04-16T09:37:35.796Z,19.45
2019-04-16T09:38:33.450Z,19.62
2019-04-16T09:39:33.455Z,19.81
2019-04-16T09:40:33.597Z,19.66
2019-04-16T09:41:33.604Z,19.15
2019-04-16T09:42:33.427Z,18.91
2019-04-16T09:43:33.412Z,18.96
2019-04-16T09:44:35.361Z,19.07
2019-04-16T09:45:33.797Z,19.20
2019-04-16T09:46:50.458Z,19.37
2019-04-16T09:47:33.486Z,19.39
2019-04-16T09:48:34.815Z,19.38
2019-04-16T09:49:34.375Z,19.35
2019-04-16T09:50:33.350Z,19.35
2019-04-16T09:51:33.352Z,19.24
2019-04-16T09:52:33.338Z,19.19
2019-04-16T09:53:34.535Z,19.15
2019-04-16T09:54:33.332Z,19.17
2019-04-16T09:55:33.318Z,19.24
2019-04-16T09:56:33.328Z,19.29
2019-04-16T09:57:33.300Z,19.35
2019-04-16T09:58:34.866Z,19.37
2019-04-16T09:59:33.291Z,19.59
2019-04-16T10:00:33.283Z,19.67
2019-04-16T10:01:33.294Z,19.56
2019-04-16T10:02:33.261Z,19.42
2019-04-16T10:03:33.257Z,19.35
2019-04-16T10:04:33.254Z,19.17
2019-04-16T10:05:33.253Z,19.23
2019-04-16T10:06:33.260Z,19.37
2019-04-16T10:07:33.255Z,19.49
2019-04-16T10:08:33.229Z,19.70
2019-04-16T10:09:33.216Z,19.77
2019-04-16T10:10:33.210Z,19.89
2019-04-16T10:11:35.732Z,20.11
2019-04-16T10:12:33.229Z,20.40
2019-04-16T10:13:36.034Z,20.71
2019-04-16T10:14:33.209Z,20.82
2019-04-16T10:15:33.182Z,20.71
2019-04-16T10:16:33.201Z,20.50
2019-04-16T10:17:33.224Z,20.52
2019-04-16T10:18:35.112Z,20.70
2019-04-16T10:19:33.216Z,20.92
2019-04-16T10:20:33.147Z,21.07
2019-04-16T10:21:33.158Z,21.28
2019-04-16T10:22:33.133Z,21.30
2019-04-16T10:23:33.161Z,21.26
2019-04-16T10:24:33.138Z,21.38
2019-04-16T10:25:33.601Z,21.62
2019-04-16T10:26:33.113Z,21.88
2019-04-16T10:27:33.118Z,22.10
2019-04-16T10:28:34.002Z,22.14
2019-04-16T10:29:33.103Z,22.37
2019-04-16T10:30:33.097Z,22.51
2019-04-16T10:31:33.130Z,22.30
2019-04-16T10:32:33.113Z,22.03
2019-04-16T10:33:33.109Z,22.03
2019-04-16T10:34:36.161Z,22.14
2019-04-16T10:35:33.070Z,22.07
2019-04-16T10:36:37.091Z,22.00
2019-04-16T10:37:33.060Z,21.75
2019-04-16T10:38:33.080Z,21.50
2019-04-16T10:39:33.044Z,21.40
2019-04-16T10:40:33.073Z,21.19
2019-04-16T10:41:33.050Z,20.96
2019-04-16T10:42:33.036Z,21.05
2019-04-16T10:43:43.820Z,21.04
2019-04-16T10:44:33.015Z,21.10
2019-04-16T10:45:33.047Z,21.33
2019-04-16T10:46:33.016Z,21.19
2019-04-16T10:47:35.630Z,21.01
2019-04-16T10:48:33.023Z,20.90
2019-04-16T10:49:33.027Z,21.05
2019-04-16T10:50:32.988Z,21.28
2019-04-16T10:51:33.006Z,21.28
2019-04-16T10:52:32.974Z,21.13
2019-04-16T10:53:33.045Z,20.92
2019-04-16T10:54:33.799Z,20.71
2019-04-16T10:55:32.956Z,20.48
2019-04-16T10:56:32.973Z,20.58
2019-04-16T10:57:32.954Z,20.77
2019-04-16T10:58:32.934Z,20.86
2019-04-16T10:59:32.952Z,20.77
2019-04-16T11:00:32.925Z,20.34
2019-04-16T11:01:35.019Z,19.94
2019-04-16T11:02:32.922Z,19.67
2019-04-16T11:03:34.770Z,19.52
2019-04-16T11:04:32.972Z,19.45
2019-04-16T11:05:32.904Z,19.44
2019-04-16T11:06:32.889Z,19.47
2019-04-16T11:07:32.927Z,19.56
2019-04-16T11:08:32.876Z,19.52
2019-04-16T11:09:32.991Z,19.34
2019-04-16T11:10:32.976Z,19.26
2019-04-16T11:11:32.998Z,19.34
2019-04-16T11:12:33.159Z,19.60
2019-04-16T11:13:33.109Z,20.14
2019-04-16T11:14:32.838Z,20.63
2019-04-16T11:15:32.818Z,21.15
2019-04-16T11:16:35.895Z,21.70
2019-04-16T11:17:32.813Z,22.22
2019-04-16T11:18:32.837Z,22.61
2019-04-16T11:19:32.790Z,22.88
2019-04-16T11:20:32.795Z,22.63
2019-04-16T11:21:32.805Z,22.25
2019-04-16T11:22:32.814Z,21.74
2019-04-16T11:23:32.771Z,21.33
2019-04-16T11:24:32.759Z,21.20
2019-04-16T11:25:32.754Z,21.30
2019-04-16T11:26:32.771Z,21.41
2019-04-16T11:27:32.739Z,21.33
2019-04-16T11:28:32.738Z,21.19
2019-04-16T11:29:32.733Z,21.03
2019-04-16T11:30:32.731Z,20.85
2019-04-16T11:31:32.758Z,20.67
2019-04-16T11:32:32.734Z,20.39
2019-04-16T11:33:32.715Z,20.18
2019-04-16T11:34:32.699Z,20.32
2019-04-16T11:35:32.703Z,20.53
2019-04-16T11:36:32.716Z,20.74
2019-04-16T11:37:36.111Z,21.03
2019-04-16T11:38:32.678Z,21.30
2019-04-16T11:39:32.700Z,21.40
2019-04-16T11:40:32.672Z,21.44
2019-04-16T11:41:32.652Z,21.45
2019-04-16T11:42:32.684Z,21.54
2019-04-16T11:43:32.649Z,21.63
2019-04-16T11:44:32.639Z,21.77
2019-04-16T11:45:32.635Z,21.78
2019-04-16T11:46:32.664Z,21.69
2019-04-16T11:47:34.148Z,21.53
2019-04-16T11:48:37.220Z,21.47
2019-04-16T11:49:32.645Z,21.32
2019-04-16T11:50:35.827Z,21.15
2019-04-16T11:51:32.846Z,21.01
2019-04-16T11:52:32.582Z,20.98
2019-04-16T11:53:32.620Z,20.88
2019-04-16T11:54:32.581Z,20.96
2019-04-16T11:55:32.568Z,21.17
2019-04-16T11:56:32.608Z,21.40
2019-04-16T11:57:33.286Z,21.47
2019-04-16T11:58:32.629Z,21.51
2019-04-16T11:59:32.540Z,21.48
2019-04-16T12:00:32.535Z,21.65
2019-04-16T12:01:32.527Z,22.18
2019-04-16T12:02:32.527Z,22.67
2019-04-16T12:03:35.188Z,23.11
2019-04-16T12:04:32.558Z,23.56
2019-04-16T12:05:32.535Z,23.86
2019-04-16T12:06:32.533Z,23.71
2019-04-16T12:07:32.495Z,23.64
2019-04-16T12:08:32.513Z,23.88
2019-04-16T12:09:32.485Z,24.01
2019-04-16T12:10:32.493Z,24.29
2019-04-16T12:11:32.527Z,24.75
2019-04-16T12:12:32.490Z,25.22
2019-04-16T12:13:32.484Z,25.66
2019-04-16T12:14:34.732Z,25.41
2019-04-16T12:15:32.468Z,25.54
2019-04-16T12:16:32.536Z,25.61
2019-04-16T12:17:36.142Z,25.92
2019-04-16T12:18:32.531Z,26.10
2019-04-16T12:19:32.557Z,26.04
2019-04-16T12:20:32.458Z,25.81
2019-04-16T12:21:32.518Z,25.44
2019-04-16T12:22:32.459Z,25.29
2019-04-16T12:23:32.476Z,25.22
2019-04-16T12:24:32.462Z,25.26
2019-04-16T12:25:32.488Z,24.82
2019-04-16T12:26:32.453Z,24.51
2019-04-16T12:27:32.459Z,24.75
2019-04-16T12:28:32.536Z,25.01
2019-04-16T12:29:32.451Z,25.33
2019-04-16T12:30:32.434Z,25.70
2019-04-16T12:31:32.513Z,25.80
2019-04-16T12:32:32.458Z,25.78
2019-04-16T12:33:32.447Z,25.74
2019-04-16T12:34:32.434Z,25.59
2019-04-16T12:35:34.690Z,25.25
2019-04-16T12:36:32.423Z,25.14
2019-04-16T12:37:37.323Z,25.19
2019-04-16T12:38:32.438Z,25.31
2019-04-16T12:39:35.557Z,25.80
2019-04-16T12:40:32.427Z,26.18
2019-04-16T12:41:32.446Z,26.45
2019-04-16T12:42:32.535Z,26.67
2019-04-16T12:43:32.445Z,26.83
2019-04-16T12:44:44.721Z,26.83
2019-04-16T12:45:32.452Z,26.52
2019-04-16T12:46:32.470Z,26.41
2019-04-16T12:47:32.521Z,26.22
2019-04-16T12:48:32.434Z,26.04
2019-04-16T12:49:32.460Z,25.77
2019-04-16T12:50:32.459Z,25.36
2019-04-16T12:51:32.425Z,24.82
2019-04-16T12:52:32.445Z,24.59
2019-04-16T12:53:35.883Z,24.56
2019-04-16T12:54:32.489Z,24.62
2019-04-16T12:55:32.687Z,24.65
2019-04-16T12:56:32.428Z,24.61
2019-04-16T12:57:32.423Z,24.69
2019-04-16T12:58:32.424Z,24.62
2019-04-16T12:59:32.453Z,24.66
2019-04-16T13:00:32.417Z,24.41
2019-04-16T13:01:33.307Z,24.09
2019-04-16T13:02:32.420Z,23.76
2019-04-16T13:03:32.408Z,23.45
2019-04-16T13:04:32.443Z,23.13
2019-04-16T13:05:32.416Z,22.61
2019-04-16T13:06:32.442Z,22.34
2019-04-16T13:07:32.408Z,22.19